sensor_id;sensor_type;location;lat;lon;timestamp;P1;durP1;ratioP1;P2;durP2;ratioP2
12869;SDS011;6503;48.572;13.460;2023-07-31T05:43:46;4.47;;;2.78;;
12869;SDS011;6503;48.572;13.460;2023-07-31T05:46:14;7.18;;;2.95;;
12869;SDS011;6503;48.572;13.460;2023-07-31T05:48:41;6.18;;;3.20;;
12869;SDS011;6503;48.572;13.460;2023-07-31T05:51:09;4.13;;;2.97;;
12869;SDS011;6503;48.572;13.460;2023-07-31T05:53:37;9.65;;;3.03;;
12869;SDS011;6503;48.572;13.460;2023-07-31T05:56:05;4.88;;;2.70;;
12869;SDS011;6503;48.572;13.460;2023-07-31T05:58:33;7.95;;;2.80;;
12869;SDS011;6503;48.572;13.460;2023-07-31T06:03:44;7.82;;;3.00;;
12869;SDS011;6503;48.572;13.460;2023-07-31T06:06:11;4.55;;;2.72;;
12869;SDS011;6503;48.572;13.460;2023-07-31T06:08:39;6.72;;;3.00;;
12869;SDS011;6503;48.572;13.460;2023-07-31T06:11:06;5.72;;;2.70;;
12869;SDS011;6503;48.572;13.460;2023-07-31T06:13:34;3.83;;;2.80;;
12869;SDS011;6503;48.572;13.460;2023-07-31T06:16:01;4.25;;;2.58;;
12869;SDS011;6503;48.572;13.460;2023-07-31T06:18:30;5.45;;;2.80;;
12869;SDS011;6503;48.572;13.460;2023-07-31T06:20:59;8.18;;;2.60;;
12869;SDS011;6503;48.572;13.460;2023-07-31T06:23:26;5.90;;;2.78;;
12869;SDS011;6503;48.572;13.460;2023-07-31T06:25:53;5.93;;;3.10;;
12869;SDS011;6503;48.572;13.460;2023-07-31T06:28:20;7.05;;;2.80;;
12869;SDS011;6503;48.572;13.460;2023-07-31T06:30:48;4.78;;;2.85;;
12869;SDS011;6503;48.572;13.460;2023-07-31T06:33:15;7.15;;;2.78;;
12869;SDS011;6503;48.572;13.460;2023-07-31T06:35:43;6.50;;;2.70;;
12869;SDS011;6503;48.572;13.460;2023-07-31T06:38:12;4.28;;;2.28;;
12869;SDS011;6503;48.572;13.460;2023-07-31T06:40:39;4.78;;;2.00;;
12869;SDS011;6503;48.572;13.460;2023-07-31T06:43:07;6.07;;;2.47;;
12869;SDS011;6503;48.572;13.460;2023-07-31T06:45:34;5.10;;;2.33;;
12869;SDS011;6503;48.572;13.460;2023-07-31T06:48:02;3.05;;;2.30;;
12869;SDS011;6503;48.572;13.460;2023-07-31T06:50:29;5.15;;;2.38;;
12869;SDS011;6503;48.572;13.460;2023-07-31T06:52:56;3.88;;;1.98;;
12869;SDS011;6503;48.572;13.460;2023-07-31T06:55:26;6.50;;;2.10;;
12869;SDS011;6503;48.572;13.460;2023-07-31T06:57:54;4.22;;;2.10;;
12869;SDS011;6503;48.572;13.460;2023-07-31T07:00:21;4.55;;;2.08;;
12869;SDS011;6503;48.572;13.460;2023-07-31T07:02:49;5.70;;;1.90;;
12869;SDS011;6503;48.572;13.460;2023-07-31T07:05:17;7.20;;;1.80;;
12869;SDS011;6503;48.572;13.460;2023-07-31T07:07:44;3.28;;;1.77;;
12869;SDS011;6503;48.572;13.460;2023-07-31T07:10:11;3.95;;;1.75;;
12869;SDS011;6503;48.572;13.460;2023-07-31T07:12:40;3.58;;;1.80;;
12869;SDS011;6503;48.572;13.460;2023-07-31T07:15:08;5.00;;;1.93;;
12869;SDS011;6503;48.572;13.460;2023-07-31T07:17:36;6.90;;;1.60;;
12869;SDS011;6503;48.572;13.460;2023-07-31T07:20:03;4.32;;;1.73;;
12869;SDS011;6503;48.572;13.460;2023-07-31T07:22:31;4.15;;;1.90;;
12869;SDS011;6503;48.572;13.460;2023-07-31T07:24:58;6.95;;;1.88;;
12869;SDS011;6503;48.572;13.460;2023-07-31T07:27:27;5.45;;;1.95;;
12869;SDS011;6503;48.572;13.460;2023-07-31T07:29:56;6.45;;;2.20;;
12869;SDS011;6503;48.572;13.460;2023-07-31T07:32:23;6.20;;;2.10;;
12869;SDS011;6503;48.572;13.460;2023-07-31T07:34:51;5.05;;;2.10;;
12869;SDS011;6503;48.572;13.460;2023-07-31T07:37:18;5.60;;;2.00;;
12869;SDS011;6503;48.572;13.460;2023-07-31T07:39:45;4.65;;;1.65;;
12869;SDS011;6503;48.572;13.460;2023-07-31T07:42:13;4.10;;;2.47;;
12869;SDS011;6503;48.572;13.460;2023-07-31T07:44:40;4.55;;;1.60;;
12869;SDS011;6503;48.572;13.460;2023-07-31T07:47:09;5.32;;;2.22;;
12869;SDS011;6503;48.572;13.460;2023-07-31T07:49:36;3.75;;;1.60;;
12869;SDS011;6503;48.572;13.460;2023-07-31T07:52:04;4.07;;;1.60;;
12869;SDS011;6503;48.572;13.460;2023-07-31T07:54:31;5.38;;;1.85;;
12869;SDS011;6503;48.572;13.460;2023-07-31T07:56:58;4.72;;;1.70;;
12869;SDS011;6503;48.572;13.460;2023-07-31T07:59:26;4.40;;;1.50;;
12869;SDS011;6503;48.572;13.460;2023-07-31T08:01:53;5.32;;;2.10;;
12869;SDS011;6503;48.572;13.460;2023-07-31T08:04:24;2.53;;;1.23;;
12869;SDS011;6503;48.572;13.460;2023-07-31T08:06:51;3.88;;;1.50;;
12869;SDS011;6503;48.572;13.460;2023-07-31T08:09:18;3.63;;;1.83;;
12869;SDS011;6503;48.572;13.460;2023-07-31T08:11:45;4.03;;;1.58;;
12869;SDS011;6503;48.572;13.460;2023-07-31T08:14:13;3.95;;;1.63;;
12869;SDS011;6503;48.572;13.460;2023-07-31T08:16:43;4.18;;;2.10;;
12869;SDS011;6503;48.572;13.460;2023-07-31T08:19:12;5.30;;;2.10;;
12869;SDS011;6503;48.572;13.460;2023-07-31T08:21:46;3.40;;;1.85;;
12869;SDS011;6503;48.572;13.460;2023-07-31T08:24:13;4.22;;;1.95;;
12869;SDS011;6503;48.572;13.460;2023-07-31T08:26:44;5.47;;;1.90;;
12869;SDS011;6503;48.572;13.460;2023-07-31T08:29:16;2.28;;;1.42;;
12869;SDS011;6503;48.572;13.460;2023-07-31T08:31:45;4.00;;;1.67;;
12869;SDS011;6503;48.572;13.460;2023-07-31T08:34:15;3.40;;;1.75;;
12869;SDS011;6503;48.572;13.460;2023-07-31T08:37:02;3.88;;;1.50;;
12869;SDS011;6503;48.572;13.460;2023-07-31T08:39:54;5.65;;;1.70;;
12869;SDS011;6503;48.572;13.460;2023-07-31T08:42:31;3.08;;;1.50;;
12869;SDS011;6503;48.572;13.460;2023-07-31T08:45:01;3.15;;;1.70;;
12869;SDS011;6503;48.572;13.460;2023-07-31T08:47:47;4.68;;;1.60;;
12869;SDS011;6503;48.572;13.460;2023-07-31T08:50:28;3.30;;;1.73;;
12869;SDS011;6503;48.572;13.460;2023-07-31T08:53:02;5.10;;;1.65;;
12869;SDS011;6503;48.572;13.460;2023-07-31T08:55:33;3.05;;;1.55;;
12869;SDS011;6503;48.572;13.460;2023-07-31T08:58:01;4.20;;;1.45;;
12869;SDS011;6503;48.572;13.460;2023-07-31T09:00:37;5.40;;;1.65;;
12869;SDS011;6503;48.572;13.460;2023-07-31T09:03:14;3.80;;;1.50;;
12869;SDS011;6503;48.572;13.460;2023-07-31T09:05:42;5.97;;;1.77;;
12869;SDS011;6503;48.572;13.460;2023-07-31T09:08:17;3.58;;;1.83;;
12869;SDS011;6503;48.572;13.460;2023-07-31T09:10:48;2.17;;;1.23;;
12869;SDS011;6503;48.572;13.460;2023-07-31T09:13:16;4.07;;;1.70;;
12869;SDS011;6503;48.572;13.460;2023-07-31T09:15:45;3.67;;;1.67;;
12869;SDS011;6503;48.572;13.460;2023-07-31T09:21:05;3.38;;;1.60;;
12869;SDS011;6503;48.572;13.460;2023-07-31T09:23:44;4.50;;;1.80;;
12869;SDS011;6503;48.572;13.460;2023-07-31T09:26:29;3.78;;;1.52;;
12869;SDS011;6503;48.572;13.460;2023-07-31T09:28:57;3.75;;;1.50;;
12869;SDS011;6503;48.572;13.460;2023-07-31T09:31:38;4.20;;;1.38;;
12869;SDS011;6503;48.572;13.460;2023-07-31T09:34:06;6.30;;;2.15;;
12869;SDS011;6503;48.572;13.460;2023-07-31T09:36:39;3.70;;;1.83;;
12869;SDS011;6503;48.572;13.460;2023-07-31T09:39:12;2.92;;;1.63;;
12869;SDS011;6503;48.572;13.460;2023-07-31T09:41:43;3.58;;;1.60;;
12869;SDS011;6503;48.572;13.460;2023-07-31T09:44:11;3.67;;;1.55;;
12869;SDS011;6503;48.572;13.460;2023-07-31T09:46:39;2.83;;;1.40;;
12869;SDS011;6503;48.572;13.460;2023-07-31T09:49:09;4.00;;;1.77;;
12869;SDS011;6503;48.572;13.460;2023-07-31T09:51:44;2.33;;;1.48;;
12869;SDS011;6503;48.572;13.460;2023-07-31T09:54:18;2.92;;;1.55;;
12869;SDS011;6503;48.572;13.460;2023-07-31T09:56:46;2.13;;;1.30;;
12869;SDS011;6503;48.572;13.460;2023-07-31T09:59:19;2.95;;;1.60;;
12869;SDS011;6503;48.572;13.460;2023-07-31T10:01:47;5.22;;;1.55;;
12869;SDS011;6503;48.572;13.460;2023-07-31T10:04:18;3.55;;;1.50;;
12869;SDS011;6503;48.572;13.460;2023-07-31T10:07:40;4.53;;;1.50;;
12869;SDS011;6503;48.572;13.460;2023-07-31T10:10:11;5.50;;;1.52;;
12869;SDS011;6503;48.572;13.460;2023-07-31T10:12:44;4.60;;;1.50;;
12869;SDS011;6503;48.572;13.460;2023-07-31T10:15:13;4.43;;;1.70;;
12869;SDS011;6503;48.572;13.460;2023-07-31T10:17:44;4.55;;;1.65;;
12869;SDS011;6503;48.572;13.460;2023-07-31T10:20:14;3.77;;;1.97;;
12869;SDS011;6503;48.572;13.460;2023-07-31T10:22:47;3.13;;;1.40;;
12869;SDS011;6503;48.572;13.460;2023-07-31T10:25:16;4.55;;;1.92;;
12869;SDS011;6503;48.572;13.460;2023-07-31T10:27:56;2.72;;;1.75;;
12869;SDS011;6503;48.572;13.460;2023-07-31T10:30:34;3.33;;;1.92;;
12869;SDS011;6503;48.572;13.460;2023-07-31T10:33:10;3.53;;;1.65;;
12869;SDS011;6503;48.572;13.460;2023-07-31T10:35:41;3.00;;;1.40;;
12869;SDS011;6503;48.572;13.460;2023-07-31T10:38:13;6.03;;;2.38;;
12869;SDS011;6503;48.572;13.460;2023-07-31T10:40:41;2.85;;;1.63;;
12869;SDS011;6503;48.572;13.460;2023-07-31T10:43:10;3.90;;;1.67;;
12869;SDS011;6503;48.572;13.460;2023-07-31T10:45:54;3.85;;;1.80;;
12869;SDS011;6503;48.572;13.460;2023-07-31T10:48:23;2.53;;;1.65;;
12869;SDS011;6503;48.572;13.460;2023-07-31T10:53:24;3.00;;;1.60;;
12869;SDS011;6503;48.572;13.460;2023-07-31T10:56:07;3.72;;;1.90;;
12869;SDS011;6503;48.572;13.460;2023-07-31T10:58:50;5.53;;;3.78;;
12869;SDS011;6503;48.572;13.460;2023-07-31T11:04:15;3.20;;;1.70;;
12869;SDS011;6503;48.572;13.460;2023-07-31T11:06:55;4.68;;;1.83;;
12869;SDS011;6503;48.572;13.460;2023-07-31T11:09:25;3.95;;;1.88;;
12869;SDS011;6503;48.572;13.460;2023-07-31T11:11:55;2.85;;;1.40;;
12869;SDS011;6503;48.572;13.460;2023-07-31T11:14:23;3.75;;;1.90;;
12869;SDS011;6503;48.572;13.460;2023-07-31T11:16:50;3.42;;;1.40;;
12869;SDS011;6503;48.572;13.460;2023-07-31T11:19:21;3.17;;;1.65;;
12869;SDS011;6503;48.572;13.460;2023-07-31T11:21:53;3.83;;;1.58;;
12869;SDS011;6503;48.572;13.460;2023-07-31T11:24:24;4.45;;;1.90;;
12869;SDS011;6503;48.572;13.460;2023-07-31T11:26:54;4.45;;;1.50;;
12869;SDS011;6503;48.572;13.460;2023-07-31T11:29:25;4.43;;;1.50;;
12869;SDS011;6503;48.572;13.460;2023-07-31T11:31:55;2.70;;;1.50;;
12869;SDS011;6503;48.572;13.460;2023-07-31T11:34:23;3.63;;;1.70;;
12869;SDS011;6503;48.572;13.460;2023-07-31T11:39:20;3.55;;;1.80;;
12869;SDS011;6503;48.572;13.460;2023-07-31T11:41:50;3.55;;;1.65;;
12869;SDS011;6503;48.572;13.460;2023-07-31T11:44:19;5.95;;;1.65;;
12869;SDS011;6503;48.572;13.460;2023-07-31T11:46:47;4.88;;;1.90;;
12869;SDS011;6503;48.572;13.460;2023-07-31T11:49:15;4.50;;;1.75;;
12869;SDS011;6503;48.572;13.460;2023-07-31T11:51:44;5.17;;;1.97;;
12869;SDS011;6503;48.572;13.460;2023-07-31T11:54:11;3.20;;;1.55;;
12869;SDS011;6503;48.572;13.460;2023-07-31T11:56:39;5.88;;;1.98;;
12869;SDS011;6503;48.572;13.460;2023-07-31T11:59:08;6.57;;;1.65;;
12869;SDS011;6503;48.572;13.460;2023-07-31T12:01:35;3.65;;;1.50;;
12869;SDS011;6503;48.572;13.460;2023-07-31T12:04:03;4.47;;;1.80;;
12869;SDS011;6503;48.572;13.460;2023-07-31T12:06:34;3.70;;;1.70;;
12869;SDS011;6503;48.572;13.460;2023-07-31T12:09:02;4.35;;;1.95;;
12869;SDS011;6503;48.572;13.460;2023-07-31T12:11:30;4.10;;;2.33;;
12869;SDS011;6503;48.572;13.460;2023-07-31T12:13:57;4.03;;;2.22;;
12869;SDS011;6503;48.572;13.460;2023-07-31T12:16:29;3.97;;;1.90;;
12869;SDS011;6503;48.572;13.460;2023-07-31T12:18:56;4.22;;;2.20;;
12869;SDS011;6503;48.572;13.460;2023-07-31T12:21:24;3.08;;;1.85;;
12869;SDS011;6503;48.572;13.460;2023-07-31T12:23:54;2.47;;;1.73;;
12869;SDS011;6503;48.572;13.460;2023-07-31T12:26:23;4.30;;;2.10;;
12869;SDS011;6503;48.572;13.460;2023-07-31T12:28:50;4.53;;;2.10;;
12869;SDS011;6503;48.572;13.460;2023-07-31T12:31:18;3.78;;;1.80;;
12869;SDS011;6503;48.572;13.460;2023-07-31T12:33:49;3.72;;;2.22;;
12869;SDS011;6503;48.572;13.460;2023-07-31T12:36:16;4.43;;;1.88;;
12869;SDS011;6503;48.572;13.460;2023-07-31T12:38:44;2.85;;;1.77;;
12869;SDS011;6503;48.572;13.460;2023-07-31T12:41:12;3.15;;;1.80;;
12869;SDS011;6503;48.572;13.460;2023-07-31T12:43:41;2.67;;;1.80;;
12869;SDS011;6503;48.572;13.460;2023-07-31T12:46:10;3.38;;;2.00;;
12869;SDS011;6503;48.572;13.460;2023-07-31T12:48:38;3.67;;;1.90;;
12869;SDS011;6503;48.572;13.460;2023-07-31T12:51:09;2.90;;;1.73;;
12869;SDS011;6503;48.572;13.460;2023-07-31T12:53:36;3.53;;;1.80;;
12869;SDS011;6503;48.572;13.460;2023-07-31T12:56:06;3.10;;;1.80;;
12869;SDS011;6503;48.572;13.460;2023-07-31T12:58:35;4.65;;;2.03;;
12869;SDS011;6503;48.572;13.460;2023-07-31T13:01:05;3.80;;;1.90;;
12869;SDS011;6503;48.572;13.460;2023-07-31T13:03:34;3.05;;;2.10;;
12869;SDS011;6503;48.572;13.460;2023-07-31T13:06:08;2.78;;;2.00;;
12869;SDS011;6503;48.572;13.460;2023-07-31T13:08:37;4.22;;;2.33;;
12869;SDS011;6503;48.572;13.460;2023-07-31T13:11:05;3.28;;;1.92;;
12869;SDS011;6503;48.572;13.460;2023-07-31T13:13:33;3.88;;;1.65;;
12869;SDS011;6503;48.572;13.460;2023-07-31T13:16:01;3.55;;;1.63;;
12869;SDS011;6503;48.572;13.460;2023-07-31T13:18:29;2.80;;;1.75;;
12869;SDS011;6503;48.572;13.460;2023-07-31T13:20:59;4.90;;;1.70;;
12869;SDS011;6503;48.572;13.460;2023-07-31T13:23:31;3.30;;;1.70;;
12869;SDS011;6503;48.572;13.460;2023-07-31T13:26:03;3.45;;;1.67;;
12869;SDS011;6503;48.572;13.460;2023-07-31T13:28:31;5.55;;;2.25;;
12869;SDS011;6503;48.572;13.460;2023-07-31T13:31:01;4.95;;;2.05;;
12869;SDS011;6503;48.572;13.460;2023-07-31T13:33:31;4.30;;;1.95;;
12869;SDS011;6503;48.572;13.460;2023-07-31T13:35:59;3.33;;;1.48;;
12869;SDS011;6503;48.572;13.460;2023-07-31T13:38:31;3.00;;;1.70;;
12869;SDS011;6503;48.572;13.460;2023-07-31T13:41:03;3.35;;;1.92;;
12869;SDS011;6503;48.572;13.460;2023-07-31T13:43:32;2.10;;;1.38;;
12869;SDS011;6503;48.572;13.460;2023-07-31T13:46:00;2.95;;;1.60;;
12869;SDS011;6503;48.572;13.460;2023-07-31T13:48:31;5.50;;;1.60;;
12869;SDS011;6503;48.572;13.460;2023-07-31T13:51:01;2.78;;;1.70;;
12869;SDS011;6503;48.572;13.460;2023-07-31T13:53:32;2.88;;;1.60;;
12869;SDS011;6503;48.572;13.460;2023-07-31T13:56:00;2.30;;;1.52;;
12869;SDS011;6503;48.572;13.460;2023-07-31T13:58:30;5.00;;;2.53;;
12869;SDS011;6503;48.572;13.460;2023-07-31T14:00:57;3.67;;;1.67;;
12869;SDS011;6503;48.572;13.460;2023-07-31T14:03:31;4.03;;;2.30;;
12869;SDS011;6503;48.572;13.460;2023-07-31T14:06:06;3.38;;;1.70;;
12869;SDS011;6503;48.572;13.460;2023-07-31T14:08:46;4.68;;;2.13;;
12869;SDS011;6503;48.572;13.460;2023-07-31T14:11:17;3.55;;;1.63;;
12869;SDS011;6503;48.572;13.460;2023-07-31T14:13:45;4.15;;;1.90;;
12869;SDS011;6503;48.572;13.460;2023-07-31T14:16:16;3.47;;;1.75;;
12869;SDS011;6503;48.572;13.460;2023-07-31T14:18:59;2.63;;;1.80;;
12869;SDS011;6503;48.572;13.460;2023-07-31T14:21:41;3.28;;;1.58;;
12869;SDS011;6503;48.572;13.460;2023-07-31T14:24:27;2.60;;;1.70;;
12869;SDS011;6503;48.572;13.460;2023-07-31T14:26:54;3.45;;;1.42;;
12869;SDS011;6503;48.572;13.460;2023-07-31T14:29:22;2.22;;;1.45;;
12869;SDS011;6503;48.572;13.460;2023-07-31T14:31:52;4.05;;;1.63;;
12869;SDS011;6503;48.572;13.460;2023-07-31T14:34:20;2.72;;;1.63;;
12869;SDS011;6503;48.572;13.460;2023-07-31T14:36:48;3.97;;;2.00;;
12869;SDS011;6503;48.572;13.460;2023-07-31T14:39:16;3.58;;;2.08;;
12869;SDS011;6503;48.572;13.460;2023-07-31T14:41:49;3.75;;;1.60;;
12869;SDS011;6503;48.572;13.460;2023-07-31T14:44:17;3.83;;;2.05;;
12869;SDS011;6503;48.572;13.460;2023-07-31T14:46:47;3.13;;;1.60;;
12869;SDS011;6503;48.572;13.460;2023-07-31T14:49:14;4.85;;;1.60;;
12869;SDS011;6503;48.572;13.460;2023-07-31T14:51:48;4.15;;;1.70;;
12869;SDS011;6503;48.572;13.460;2023-07-31T14:54:15;3.67;;;2.50;;
12869;SDS011;6503;48.572;13.460;2023-07-31T14:56:42;4.00;;;1.98;;
12869;SDS011;6503;48.572;13.460;2023-07-31T14:59:11;3.70;;;1.80;;
12869;SDS011;6503;48.572;13.460;2023-07-31T15:01:39;3.23;;;1.83;;
12869;SDS011;6503;48.572;13.460;2023-07-31T15:04:06;3.03;;;1.60;;
12869;SDS011;6503;48.572;13.460;2023-07-31T15:06:39;7.35;;;1.95;;
12869;SDS011;6503;48.572;13.460;2023-07-31T15:09:23;2.45;;;1.77;;
12869;SDS011;6503;48.572;13.460;2023-07-31T15:11:51;3.45;;;2.17;;
12869;SDS011;6503;48.572;13.460;2023-07-31T15:14:20;3.95;;;1.50;;
12869;SDS011;6503;48.572;13.460;2023-07-31T15:16:47;3.85;;;1.67;;
12869;SDS011;6503;48.572;13.460;2023-07-31T15:19:15;4.28;;;1.88;;
12869;SDS011;6503;48.572;13.460;2023-07-31T15:21:42;3.85;;;1.85;;
12869;SDS011;6503;48.572;13.460;2023-07-31T15:24:12;6.00;;;2.85;;
12869;SDS011;6503;48.572;13.460;2023-07-31T15:26:42;4.13;;;2.00;;
12869;SDS011;6503;48.572;13.460;2023-07-31T15:29:11;3.40;;;2.00;;
12869;SDS011;6503;48.572;13.460;2023-07-31T15:31:45;2.72;;;1.55;;
12869;SDS011;6503;48.572;13.460;2023-07-31T15:34:13;3.53;;;2.00;;
12869;SDS011;6503;48.572;13.460;2023-07-31T15:36:41;4.47;;;1.60;;
12869;SDS011;6503;48.572;13.460;2023-07-31T15:39:10;7.50;;;5.32;;
12869;SDS011;6503;48.572;13.460;2023-07-31T15:41:38;3.33;;;1.92;;
12869;SDS011;6503;48.572;13.460;2023-07-31T15:44:05;4.10;;;1.80;;
12869;SDS011;6503;48.572;13.460;2023-07-31T15:46:33;4.85;;;2.22;;
12869;SDS011;6503;48.572;13.460;2023-07-31T15:51:35;3.80;;;2.00;;
12869;SDS011;6503;48.572;13.460;2023-07-31T15:54:02;3.50;;;1.80;;
12869;SDS011;6503;48.572;13.460;2023-07-31T15:56:31;3.28;;;1.90;;
12869;SDS011;6503;48.572;13.460;2023-07-31T15:59:00;3.30;;;1.77;;
12869;SDS011;6503;48.572;13.460;2023-07-31T16:01:29;3.58;;;1.70;;
12869;SDS011;6503;48.572;13.460;2023-07-31T16:03:56;2.97;;;1.63;;
12869;SDS011;6503;48.572;13.460;2023-07-31T16:06:24;2.60;;;1.55;;
12869;SDS011;6503;48.572;13.460;2023-07-31T16:08:55;2.25;;;1.52;;
12869;SDS011;6503;48.572;13.460;2023-07-31T16:11:26;3.45;;;1.80;;
12869;SDS011;6503;48.572;13.460;2023-07-31T16:13:53;3.25;;;1.58;;
12869;SDS011;6503;48.572;13.460;2023-07-31T16:16:23;2.10;;;1.30;;
12869;SDS011;6503;48.572;13.460;2023-07-31T16:18:52;3.30;;;1.60;;
12869;SDS011;6503;48.572;13.460;2023-07-31T16:21:20;3.30;;;1.65;;
12869;SDS011;6503;48.572;13.460;2023-07-31T16:23:47;4.32;;;1.65;;
12869;SDS011;6503;48.572;13.460;2023-07-31T16:26:23;5.00;;;1.85;;
12869;SDS011;6503;48.572;13.460;2023-07-31T16:28:51;3.72;;;1.52;;
12869;SDS011;6503;48.572;13.460;2023-07-31T16:31:19;4.78;;;1.88;;
12869;SDS011;6503;48.572;13.460;2023-07-31T16:33:50;4.07;;;1.80;;
12869;SDS011;6503;48.572;13.460;2023-07-31T16:36:17;3.88;;;1.73;;
12869;SDS011;6503;48.572;13.460;2023-07-31T16:38:46;3.95;;;1.80;;
12869;SDS011;6503;48.572;13.460;2023-07-31T16:41:15;3.90;;;2.28;;
12869;SDS011;6503;48.572;13.460;2023-07-31T16:43:43;3.40;;;1.85;;
12869;SDS011;6503;48.572;13.460;2023-07-31T16:46:12;5.28;;;2.40;;
12869;SDS011;6503;48.572;13.460;2023-07-31T16:48:41;4.35;;;1.73;;
12869;SDS011;6503;48.572;13.460;2023-07-31T16:51:08;3.15;;;1.60;;
12869;SDS011;6503;48.572;13.460;2023-07-31T16:53:35;2.58;;;1.80;;
12869;SDS011;6503;48.572;13.460;2023-07-31T16:56:05;4.53;;;1.95;;
12869;SDS011;6503;48.572;13.460;2023-07-31T16:58:34;3.45;;;1.83;;
12869;SDS011;6503;48.572;13.460;2023-07-31T17:01:02;3.03;;;1.50;;
12869;SDS011;6503;48.572;13.460;2023-07-31T17:03:32;3.67;;;1.80;;
12869;SDS011;6503;48.572;13.460;2023-07-31T17:06:02;5.57;;;1.95;;
12869;SDS011;6503;48.572;13.460;2023-07-31T17:08:29;5.47;;;2.10;;
12869;SDS011;6503;48.572;13.460;2023-07-31T17:10:57;2.38;;;1.60;;
12869;SDS011;6503;48.572;13.460;2023-07-31T17:13:24;2.72;;;1.60;;
12869;SDS011;6503;48.572;13.460;2023-07-31T17:15:53;4.47;;;1.70;;
12869;SDS011;6503;48.572;13.460;2023-07-31T17:18:23;6.03;;;2.30;;
12869;SDS011;6503;48.572;13.460;2023-07-31T17:20:52;3.22;;;2.08;;
12869;SDS011;6503;48.572;13.460;2023-07-31T17:23:19;8.52;;;2.50;;
12869;SDS011;6503;48.572;13.460;2023-07-31T17:25:46;3.97;;;2.00;;
12869;SDS011;6503;48.572;13.460;2023-07-31T17:28:13;1.73;;;1.40;;
12869;SDS011;6503;48.572;13.460;2023-07-31T17:30:41;4.35;;;1.77;;
12869;SDS011;6503;48.572;13.460;2023-07-31T17:33:10;2.63;;;1.90;;
12869;SDS011;6503;48.572;13.460;2023-07-31T17:35:37;6.60;;;2.13;;
12869;SDS011;6503;48.572;13.460;2023-07-31T17:38:04;4.38;;;2.00;;
12869;SDS011;6503;48.572;13.460;2023-07-31T17:40:34;3.80;;;1.80;;
12869;SDS011;6503;48.572;13.460;2023-07-31T17:43:02;3.20;;;1.98;;
12869;SDS011;6503;48.572;13.460;2023-07-31T17:45:29;2.60;;;1.63;;
12869;SDS011;6503;48.572;13.460;2023-07-31T17:47:57;2.63;;;1.70;;
12869;SDS011;6503;48.572;13.460;2023-07-31T17:50:26;3.40;;;1.80;;
12869;SDS011;6503;48.572;13.460;2023-07-31T17:55:21;4.45;;;2.05;;
12869;SDS011;6503;48.572;13.460;2023-07-31T17:57:48;3.92;;;2.00;;
12869;SDS011;6503;48.572;13.460;2023-07-31T18:00:16;4.63;;;2.50;;
12869;SDS011;6503;48.572;13.460;2023-07-31T18:02:44;5.32;;;2.75;;
12869;SDS011;6503;48.572;13.460;2023-07-31T18:05:11;4.95;;;2.35;;
12869;SDS011;6503;48.572;13.460;2023-07-31T18:07:40;5.53;;;2.40;;
12869;SDS011;6503;48.572;13.460;2023-07-31T18:10:08;7.70;;;2.92;;
12869;SDS011;6503;48.572;13.460;2023-07-31T18:12:35;5.38;;;3.05;;
12869;SDS011;6503;48.572;13.460;2023-07-31T18:15:03;4.75;;;2.50;;
12869;SDS011;6503;48.572;13.460;2023-07-31T18:17:31;4.40;;;2.35;;
12869;SDS011;6503;48.572;13.460;2023-07-31T18:19:58;5.32;;;2.13;;
12869;SDS011;6503;48.572;13.460;2023-07-31T18:22:25;3.67;;;2.13;;
12869;SDS011;6503;48.572;13.460;2023-07-31T18:24:55;5.55;;;2.70;;
12869;SDS011;6503;48.572;13.460;2023-07-31T18:27:22;5.10;;;2.15;;
12869;SDS011;6503;48.572;13.460;2023-07-31T18:29:49;4.22;;;2.22;;
12869;SDS011;6503;48.572;13.460;2023-07-31T18:32:17;5.38;;;2.78;;
12869;SDS011;6503;48.572;13.460;2023-07-31T18:34:47;4.38;;;2.40;;
12869;SDS011;6503;48.572;13.460;2023-07-31T18:37:14;4.45;;;2.47;;
12869;SDS011;6503;48.572;13.460;2023-07-31T18:39:42;3.95;;;2.75;;
12869;SDS011;6503;48.572;13.460;2023-07-31T18:42:11;3.65;;;2.00;;
12869;SDS011;6503;48.572;13.460;2023-07-31T18:44:39;7.68;;;2.47;;
12869;SDS011;6503;48.572;13.460;2023-07-31T18:47:06;5.03;;;2.08;;
12869;SDS011;6503;48.572;13.460;2023-07-31T18:49:35;7.80;;;3.22;;
12869;SDS011;6503;48.572;13.460;2023-07-31T18:52:02;5.78;;;2.58;;
12869;SDS011;6503;48.572;13.460;2023-07-31T18:54:29;3.63;;;2.58;;
12869;SDS011;6503;48.572;13.460;2023-07-31T18:56:57;5.57;;;2.40;;
12869;SDS011;6503;48.572;13.460;2023-07-31T18:59:25;5.30;;;2.60;;
12869;SDS011;6503;48.572;13.460;2023-07-31T19:01:53;6.78;;;2.90;;
12869;SDS011;6503;48.572;13.460;2023-07-31T19:04:21;4.85;;;2.45;;
12869;SDS011;6503;48.572;13.460;2023-07-31T19:06:52;5.15;;;2.33;;
12869;SDS011;6503;48.572;13.460;2023-07-31T19:09:26;5.75;;;2.70;;
12869;SDS011;6503;48.572;13.460;2023-07-31T19:12:05;5.18;;;2.45;;
12869;SDS011;6503;48.572;13.460;2023-07-31T19:14:43;8.15;;;2.70;;
12869;SDS011;6503;48.572;13.460;2023-07-31T19:17:12;5.15;;;2.42;;
12869;SDS011;6503;48.572;13.460;2023-07-31T19:19:41;3.95;;;2.30;;
12869;SDS011;6503;48.572;13.460;2023-07-31T19:22:08;6.32;;;2.38;;
12869;SDS011;6503;48.572;13.460;2023-07-31T19:24:36;7.28;;;2.85;;
12869;SDS011;6503;48.572;13.460;2023-07-31T19:27:06;7.82;;;2.95;;
12869;SDS011;6503;48.572;13.460;2023-07-31T19:29:33;3.65;;;2.42;;
12869;SDS011;6503;48.572;13.460;2023-07-31T19:32:02;3.78;;;2.40;;
12869;SDS011;6503;48.572;13.460;2023-07-31T19:34:30;5.05;;;2.70;;
12869;SDS011;6503;48.572;13.460;2023-07-31T19:36:58;5.63;;;2.90;;
12869;SDS011;6503;48.572;13.460;2023-07-31T19:39:26;4.65;;;2.30;;
12869;SDS011;6503;48.572;13.460;2023-07-31T19:41:54;7.70;;;2.80;;
12869;SDS011;6503;48.572;13.460;2023-07-31T19:44:22;5.93;;;2.67;;
12869;SDS011;6503;48.572;13.460;2023-07-31T19:46:49;8.80;;;2.90;;
12869;SDS011;6503;48.572;13.460;2023-07-31T19:49:18;7.97;;;2.95;;
12869;SDS011;6503;48.572;13.460;2023-07-31T19:51:46;6.18;;;2.78;;
12869;SDS011;6503;48.572;13.460;2023-07-31T19:54:14;6.40;;;2.80;;
12869;SDS011;6503;48.572;13.460;2023-07-31T19:56:44;6.43;;;2.50;;
12869;SDS011;6503;48.572;13.460;2023-07-31T19:59:13;4.57;;;3.10;;
12869;SDS011;6503;48.572;13.460;2023-07-31T20:01:41;5.72;;;2.90;;
12869;SDS011;6503;48.572;13.460;2023-07-31T20:04:09;7.10;;;2.80;;
12869;SDS011;6503;48.572;13.460;2023-07-31T20:06:39;5.75;;;2.75;;
12869;SDS011;6503;48.572;13.460;2023-07-31T20:09:06;5.65;;;2.97;;
12869;SDS011;6503;48.572;13.460;2023-07-31T20:11:33;3.90;;;2.83;;
12869;SDS011;6503;48.572;13.460;2023-07-31T20:14:04;4.70;;;2.53;;
12869;SDS011;6503;48.572;13.460;2023-07-31T20:16:31;5.80;;;2.90;;
12869;SDS011;6503;48.572;13.460;2023-07-31T20:19:00;5.80;;;2.63;;
12869;SDS011;6503;48.572;13.460;2023-07-31T20:21:28;4.15;;;2.40;;
12869;SDS011;6503;48.572;13.460;2023-07-31T20:23:57;3.10;;;2.40;;
12869;SDS011;6503;48.572;13.460;2023-07-31T20:26:24;6.37;;;2.53;;
12869;SDS011;6503;48.572;13.460;2023-07-31T20:28:52;6.88;;;2.78;;
12869;SDS011;6503;48.572;13.460;2023-07-31T20:31:19;4.40;;;2.55;;
12869;SDS011;6503;48.572;13.460;2023-07-31T20:33:47;6.32;;;2.83;;
12869;SDS011;6503;48.572;13.460;2023-07-31T20:36:14;5.63;;;3.00;;
12869;SDS011;6503;48.572;13.460;2023-07-31T20:38:42;5.40;;;3.00;;
12869;SDS011;6503;48.572;13.460;2023-07-31T20:41:11;5.30;;;3.00;;
12869;SDS011;6503;48.572;13.460;2023-07-31T20:43:38;4.45;;;3.05;;
12869;SDS011;6503;48.572;13.460;2023-07-31T20:46:05;7.90;;;3.67;;
12869;SDS011;6503;48.572;13.460;2023-07-31T20:48:33;8.65;;;3.80;;
12869;SDS011;6503;48.572;13.460;2023-07-31T20:51:01;9.25;;;3.13;;
12869;SDS011;6503;48.572;13.460;2023-07-31T20:53:28;4.63;;;2.88;;
12869;SDS011;6503;48.572;13.460;2023-07-31T20:58:29;6.18;;;2.67;;
12869;SDS011;6503;48.572;13.460;2023-07-31T21:00:56;3.60;;;2.80;;
12869;SDS011;6503;48.572;13.460;2023-07-31T21:03:24;4.60;;;3.00;;
12869;SDS011;6503;48.572;13.460;2023-07-31T21:05:53;4.95;;;3.00;;